Latest Weather Observations for Roxby Downs

IDS60801

Issued at 5:05 pm CST Friday 22 August 2014 (issued every 30 minutes, with the page automatically refreshed every 10 minutes)

About weather observations | Map of weather stations | Latest weather observations for SA | Other Formats
Station Details ID: 016096 Name: OLYMPIC DAM AERODROME Lat: -30.48 Lon: 136.88 Height: 98.5 m
Data from the previous 72 hours. | See also: Recent months at Roxby Downs
Date/Time
CST
Temp
°C
App
Temp
°C
Dew
Point
Rel
Hum
%
Delta-T
°C
Wind Press
QNH
hPa
Press
MSL
hPa
Rain
since 9 am
mm
Dir
 
Spd
km/h
Gust
km/h
Spd
kts
Gust
kts
22/05:00pm 21.6 17.1 -0.4 23 9.8 NNE 13 20 7 11 1021.8 1021.8 0.0
22/04:30pm 22.0 16.7 -0.7 22 10.1 NNE 17 22 9 12 1021.7 1021.7 0.0
22/04:00pm 22.5 17.9 -0.9 21 10.4 NNE 13 20 7 11 1021.6 1021.6 0.0
22/03:30pm 22.4 18.2 -1.0 21 10.4 N 11 20 6 11 1021.7 1021.7 0.0
22/03:00pm 22.2 17.7 -0.5 22 10.1 N 13 24 7 13 1022.0 1022.0 0.0
22/02:30pm 21.8 16.6 -0.2 23 9.8 N 17 26 9 14 1022.2 1022.2 0.0
22/02:00pm 21.7 16.5 0.3 24 9.7 NNE 17 28 9 15 1022.4 1022.4 0.0
22/01:30pm 22.1 16.6 0.6 24 9.8 N 19 28 10 15 1022.8 1022.8 0.0
22/01:00pm 21.8 16.1 0.4 24 9.7 NE 20 26 11 14 1023.2 1023.2 0.0
22/12:30pm 21.1 15.6 0.9 26 9.2 NNE 19 28 10 15 1023.6 1023.6 0.0
22/12:00pm 21.5 15.6 1.7 27 9.2 NNE 22 33 12 18 1024.2 1024.3 0.0
22/11:30am 20.6 14.7 1.5 28 8.7 NNE 22 32 12 17 1024.9 1025.0 0.0
22/11:00am 19.7 13.5 2.1 31 8.1 NNE 24 32 13 17 1025.2 1025.3 0.0
22/10:30am 19.1 13.2 2.0 32 7.8 NNE 22 33 12 18 1025.4 1025.5 0.0
22/10:00am 18.3 12.1 2.2 34 7.3 NNE 24 33 13 18 1025.5 1025.6 0.0
22/09:30am 17.3 12.2 2.9 38 6.6 NNE 19 28 10 15 1025.6 1025.7 0.0
22/09:00am 16.1 12.4 4.2 45 5.5 NE 13 19 7 10 1025.5 1025.6 0.0
22/08:30am 14.3 9.8 4.0 50 4.7 NE 17 20 9 11 1025.3 1025.4 0.0
22/08:00am 12.4 9.1 4.4 58 3.7 NE 11 13 6 7 1025.1 1025.2 0.0
22/07:30am 9.5 6.5 4.1 69 2.4 NE 9 11 5 6 1024.7 1024.8 0.0
22/07:00am 7.4 4.3 3.5 76 1.7 ENE 9 11 5 6 1024.4 1024.5 0.0
22/06:30am 7.6 4.1 3.6 76 1.7 ENE 11 13 6 7 1023.9 1024.0 0.0
22/06:00am 7.7 4.2 3.6 75 1.8 ENE 11 13 6 7 1023.6 1023.6 0.0
22/05:30am 7.4 3.9 3.6 77 1.6 NE 11 13 6 7 1023.2 1023.2 0.0
22/05:00am 7.3 4.1 3.0 74 1.8 NE 9 11 5 6 1022.9 1022.9 0.0
22/04:30am 8.4 4.9 3.5 71 2.1 NE 11 13 6 7 1022.8 1022.8 0.0
22/04:00am 8.0 4.4 3.1 71 2.1 ENE 11 13 6 7 1022.8 1022.8 0.0
22/03:30am 7.9 4.3 3.0 71 2.1 ENE 11 13 6 7 1022.8 1022.8 0.0
22/03:00am 8.0 4.8 2.9 70 2.2 NE 9 11 5 6 1023.0 1023.0 0.0
22/02:30am 8.7 5.5 2.9 67 2.5 NE 9 11 5 6 1023.3 1023.3 0.0
22/02:00am 9.4 5.8 2.9 64 2.8 NE 11 13 6 7 1023.4 1023.4 0.0
22/01:30am 9.3 5.8 3.5 67 2.5 ENE 11 13 6 7 1023.5 1023.5 0.0
22/01:00am 6.8 4.0 2.3 73 1.9 E 6 7 3 4 1023.8 1023.8 0.0
22/12:30am 7.4 5.1 2.5 71 2.0 E 4 9 2 5 1023.8 1023.8 0.0
22/12:00am 8.0 6.5 3.1 71 2.1 ESE 0 0 0 0 1024.0 1024.1 0.0
 
Date/Time
CST
Temp
°C
App
Temp
°C
Dew
Point
Rel
Hum
%
Delta-T
°C
Wind Press
QNH
hPa
Press
MSL
hPa
Rain
since 9 am
mm
Dir
 
Spd
km/h
Gust
km/h
Spd
kts
Gust
kts
21/11:30pm 7.8 5.8 2.5 69 2.2 E 2 7 1 4 1024.0 1024.1 0.0
21/11:00pm 8.1 5.4 2.4 67 2.4 ENE 6 7 3 4 1024.1 1024.2 0.0
21/10:30pm 8.8 5.9 2.8 66 2.5 NE 7 9 4 5 1024.1 1024.2 0.0
21/10:00pm 9.3 6.5 2.9 64 2.7 ENE 7 9 4 5 1024.3 1024.4 0.0
21/09:30pm 9.8 8.2 2.6 61 3.1 CALM 0 0 0 0 1024.2 1024.3 0.0
21/09:00pm 10.4 9.0 3.4 62 3.1 CALM 0 0 0 0 1023.8 1023.8 0.0
21/08:30pm 10.6 9.0 2.7 58 3.4 CALM 0 0 0 0 1023.4 1023.4 0.0
21/08:00pm 11.5 9.9 2.5 54 3.9 CALM 0 0 0 0 1023.1 1023.1 0.0
21/07:30pm 12.6 11.0 2.5 50 4.4 CALM 0 0 0 0 1022.7 1022.7 0.0
21/07:00pm 14.3 11.6 2.9 46 5.1 N 6 6 3 3 1022.4 1022.4 0.0
21/06:30pm 16.2 14.6 2.2 39 6.3 CALM 0 6 0 3 1022.1 1022.1 0.0
21/06:00pm 19.1 15.4 2.5 33 7.7 NNE 11 15 6 8 1021.8 1021.8 0.0
21/05:30pm 20.0 17.4 3.3 33 7.9 NE 6 9 3 5 1021.5 1021.5 0.0
21/05:00pm 20.6 17.0 2.9 31 8.4 NE 11 19 6 10 1021.2 1021.2 0.0
21/04:30pm 21.0 18.4 3.2 31 8.5 NNE 6 11 3 6 1021.0 1021.0 0.0
21/04:00pm 20.6 17.8 2.9 31 8.4 NE 7 13 4 7 1021.0 1021.0 0.0
21/03:30pm 20.7 18.1 3.4 32 8.2 E 6 15 3 8 1021.1 1021.1 0.0
21/03:00pm 20.6 17.0 2.9 31 8.3 N 11 20 6 11 1021.4 1021.4 0.0
21/02:30pm 20.3 16.7 3.1 32 8.1 NNE 11 20 6 11 1021.7 1021.7 0.0
21/02:00pm 20.3 16.0 3.1 32 8.1 NNE 15 26 8 14 1021.9 1021.9 0.0
21/01:30pm 19.9 15.2 3.2 33 7.9 N 17 28 9 15 1022.1 1022.1 0.0
21/01:00pm 19.5 14.2 3.2 34 7.7 NE 20 28 11 15 1022.5 1022.5 0.0
21/12:30pm 19.2 14.1 3.0 34 7.6 N 19 30 10 16 1023.1 1023.1 0.0
21/12:00pm 18.9 14.2 3.1 35 7.4 N 17 26 9 14 1023.5 1023.5 0.0
21/11:30am 19.0 14.8 4.0 37 7.1 NNE 15 22 8 12 1023.8 1023.8 0.0
21/11:00am 18.0 14.6 3.9 39 6.7 NE 11 20 6 11 1024.2 1024.3 0.0
21/10:30am 18.1 15.1 3.9 39 6.7 ENE 9 15 5 8 1024.3 1024.4 0.0
21/10:00am 17.1 13.9 5.1 45 5.8 ENE 11 15 6 8 1024.4 1024.5 0.0
21/09:30am 16.2 12.6 5.2 48 5.2 E 13 19 7 10 1024.6 1024.7 0.0
21/09:00am 15.1 11.6 5.3 52 4.6 E 13 17 7 9 1024.6 1024.7 0.0
21/08:30am 11.3 9.5 3.6 59 3.4 SE 2 7 1 4 1024.5 1024.6 0.0
21/08:00am 7.1 4.1 1.0 65 2.4 SSE 6 7 3 4 1024.3 1024.4 0.0
21/07:30am 3.9 0.6 0.1 76 1.4 SSE 7 9 4 5 1024.1 1024.2 0.0
21/07:00am 2.7 0.7 -0.2 81 1.1 CALM 0 0 0 0 1024.1 1024.2 0.0
21/06:30am 2.2 0.1 -0.5 82 1.0 CALM 0 0 0 0 1023.9 1024.0 0.0
21/06:00am 2.5 0.5 -0.1 83 1.0 CALM 0 6 0 3 1023.7 1023.7 0.0
21/05:30am 2.5 -0.7 -0.4 81 1.1 S 6 9 3 5 1023.6 1023.6 0.0
21/05:00am 2.6 -0.8 -0.7 79 1.2 SSE 7 7 4 4 1023.4 1023.4 0.0
21/04:30am 2.9 -0.3 -0.5 78 1.2 S 6 7 3 4 1023.3 1023.3 0.0
21/04:00am 3.1 1.0 -0.5 77 1.3 CALM 0 0 0 0 1023.3 1023.3 0.0
21/03:30am 4.3 1.2 0.3 75 1.5 S 6 7 3 4 1023.3 1023.3 0.0
21/03:00am 3.1 1.1 -0.2 79 1.2 CALM 0 4 0 2 1023.3 1023.3 0.0
21/02:30am 3.8 0.7 0.1 77 1.4 S 6 6 3 3 1023.6 1023.6 0.0
21/02:00am 3.6 1.6 0.1 78 1.3 CALM 0 0 0 0 1023.9 1024.0 0.0
21/01:30am 3.9 1.9 0.1 76 1.4 CALM 0 2 0 1 1024.1 1024.2 0.0
21/01:00am 4.5 2.5 0.1 73 1.7 CALM 0 7 0 4 1024.1 1024.2 0.0
21/12:30am 5.0 3.1 0.6 73 1.7 CALM 0 0 0 0 1024.1 1024.2 0.0
21/12:00am 4.6 1.5 0.2 73 1.7 SSE 6 7 3 4 1024.1 1024.2 0.0
 
Date/Time
CST
Temp
°C
App
Temp
°C
Dew
Point
Rel
Hum
%
Delta-T
°C
Wind Press
QNH
hPa
Press
MSL
hPa
Rain
since 9 am
mm
Dir
 
Spd
km/h
Gust
km/h
Spd
kts
Gust
kts
20/11:30pm 5.2 2.1 0.4 71 1.8 SSE 6 9 3 5 1024.2 1024.3 0.0
20/11:00pm 5.1 3.2 0.5 72 1.8 CALM 0 0 0 0 1024.2 1024.3 0.0
20/10:30pm 5.7 3.8 0.5 69 2.0 CALM 0 0 0 0 1024.2 1024.3 0.0
20/10:00pm 6.6 4.7 0.3 64 2.5 CALM 0 0 0 0 1024.2 1024.3 0.0
20/09:30pm 7.1 5.3 1.0 65 2.4 CALM 0 0 0 0 1024.1 1024.2 0.0
20/09:00pm 7.6 5.7 0.6 61 2.8 CALM 0 0 0 0 1024.2 1024.3 0.0
20/08:30pm 8.6 6.7 0.6 57 3.2 CALM 0 0 0 0 1024.0 1024.1 0.0
20/08:00pm 10.4 6.8 0.4 50 4.1 ESE 9 9 5 5 1023.9 1024.0 0.0
20/07:30pm 12.4 8.4 0.8 45 4.9 ESE 11 15 6 8 1023.8 1023.8 0.0
20/07:00pm 12.3 8.6 0.1 43 5.1 ENE 9 9 5 5 1023.4 1023.4 0.0
20/06:30pm 14.0 10.2 -0.4 37 6.0 E 9 9 5 5 1023.1 1023.1 0.0
20/06:00pm 15.3 11.5 -0.4 34 6.6 E 9 13 5 7 1022.7 1022.7 0.0
20/05:30pm 16.5 12.8 -0.2 32 7.1 ENE 9 15 5 8 1022.5 1022.5 0.0
20/05:00pm 16.9 12.8 -0.3 31 7.4 E 11 19 6 10 1022.2 1022.2 0.0
20/04:30pm 17.3 14.0 0.0 31 7.5 ENE 7 15 4 8 1022.0 1022.0 0.0
20/04:00pm 17.8 14.7 0.0 30 7.7 SSE 6 15 3 8 1021.9 1021.9 0.0
20/03:30pm 17.6 14.5 0.3 31 7.5 NNW 6 11 3 6 1021.9 1021.9 0.0
20/03:00pm 17.0 13.3 0.2 32 7.3 N 9 19 5 10 1022.1 1022.1 0.0
20/02:30pm 16.7 13.0 -0.1 32 7.2 NNE 9 15 5 8 1022.4 1022.4 0.0
20/02:00pm 17.1 13.1 0.7 33 7.2 NNE 11 17 6 9 1022.7 1022.7 0.0
20/01:30pm 16.6 13.0 0.7 34 6.9 ENE 9 17 5 9 1023.0 1023.0 0.0
20/01:00pm 16.0 12.0 0.6 35 6.7 NNE 11 17 6 9 1023.5 1023.5 0.0
20/12:30pm 15.8 12.2 0.8 36 6.5 ENE 9 19 5 10 1024.1 1024.2 0.0
20/12:00pm 15.3 12.3 0.7 37 6.3 NNE 6 13 3 7 1024.7 1024.8 0.0
20/11:30am 15.0 11.2 1.9 41 5.8 N 11 17 6 9 1025.2 1025.3 0.0
20/11:00am 14.3 10.9 1.6 42 5.5 NE 9 15 5 8 1025.3 1025.4 0.0
20/10:30am 13.8 10.4 1.8 44 5.2 NNE 9 15 5 8 1025.6 1025.7 0.0
20/10:00am 12.9 9.6 2.7 50 4.5 NE 9 15 5 8 1025.8 1025.9 0.0
20/09:30am 12.0 8.4 2.7 53 4.0 NNE 11 15 6 8 1025.9 1026.0 0.0
20/09:00am 11.6 8.0 2.9 55 3.8 E 11 13 6 7 1025.8 1025.9 0.0
20/08:30am 9.2 6.0 3.0 65 2.6 ESE 9 13 5 7 1025.6 1025.7 0.0
20/08:00am 5.8 4.2 2.4 79 1.4 CALM 0 0 0 0 1025.4 1025.5 0.0
20/07:30am 2.5 0.7 1.5 93 0.4 CALM 0 0 0 0 1025.1 1025.2 0.0
20/07:00am 0.6 -2.6 -0.8 90 0.5 SSE 6 6 3 3 1024.7 1024.8 0.0
20/06:30am 0.8 -2.4 -0.6 90 0.5 SSE 6 7 3 4 1024.4 1024.5 0.0
20/06:00am 1.1 -1.0 -0.7 88 0.6 CALM 0 0 0 0 1024.1 1024.2 0.0
20/05:30am 1.7 -0.7 -0.2 87 0.7 S 2 6 1 3 1024.1 1024.2 0.0
20/05:00am 2.6 -0.6 0.8 88 0.7 S 7 9 4 5 1024.0 1024.1 0.0
20/04:30am 2.9 -0.4 0.3 83 1.0 SSE 7 7 4 4 1024.0 1024.1 0.0
20/04:00am 4.1 0.6 1.3 82 1.1 SSE 9 11 5 6 1023.7 1023.7 0.0
20/03:30am 4.7 0.9 1.9 82 1.1 SSE 11 11 6 6 1023.7 1023.7 0.0
20/03:00am 4.5 1.1 1.9 83 1.0 SSE 9 11 5 6 1023.7 1023.7 0.0
20/02:30am 4.4 1.2 0.9 78 1.4 SSE 7 9 4 5 1024.0 1024.1 0.0
20/02:00am 5.1 1.6 1.0 75 1.6 S 9 9 5 5 1024.1 1024.2 0.0
20/01:30am 5.9 2.8 1.4 73 1.8 SSE 7 9 4 5 1024.1 1024.2 0.0
20/01:00am 7.1 3.7 1.8 69 2.2 SE 9 11 5 6 1024.1 1024.2 0.0
20/12:30am 6.3 3.1 1.0 69 2.1 SE 7 9 4 5 1024.1 1024.2 0.0
20/12:00am 7.8 4.4 1.6 65 2.5 SSE 9 11 5 6 1024.4 1024.5 0.0
 
Date/Time
CST
Temp
°C
App
Temp
°C
Dew
Point
Rel
Hum
%
Delta-T
°C
Wind Press
QNH
hPa
Press
MSL
hPa
Rain
since 9 am
mm
Dir
 
Spd
km/h
Gust
km/h
Spd
kts
Gust
kts
19/11:30pm 8.8 4.9 1.2 59 3.1 SE 11 13 6 7 1024.4 1024.5 0.0
19/11:00pm 9.5 5.6 1.4 57 3.4 SE 11 15 6 8 1024.4 1024.5 0.0
19/10:30pm 8.4 5.0 2.0 64 2.7 SE 9 13 5 7 1024.3 1024.4 0.0
19/10:00pm 8.1 5.1 1.7 64 2.6 ESE 7 9 4 5 1024.2 1024.3 0.0
19/09:30pm 8.8 5.4 1.9 62 2.9 SE 9 9 5 5 1024.1 1024.2 0.0
19/09:00pm 8.5 5.5 2.1 64 2.7 SSE 7 9 4 5 1024.2 1024.3 0.0
19/08:30pm 9.7 6.7 2.3 60 3.1 SSE 7 9 4 5 1024.2 1024.3 0.0
19/08:00pm 10.2 7.3 2.8 60 3.2 SSE 7 7 4 4 1023.9 1024.0 0.0
19/07:30pm 11.6 8.7 2.4 53 4.0 SSE 7 7 4 4 1023.8 1023.8 0.0
19/07:00pm 12.9 9.5 1.6 46 4.9 SSE 9 11 5 6 1023.5 1023.5 0.0
19/06:30pm 14.2 10.8 2.1 44 5.3 SSE 9 11 5 6 1023.2 1023.2 0.0
19/06:00pm 15.6 12.2 2.1 40 6.0 SSE 9 13 5 7 1022.9 1022.9 0.0
19/05:30pm 16.4 12.9 1.3 36 6.6 SSE 9 13 5 7 1022.7 1022.7 0.0

Other Formats:

Comma delimited format used in spreadsheet applications
http://www.bom.gov.au/fwo/IDS60801/IDS60801.95658.axf

JavaScript Object Notation format (JSON) in row-major order
http://www.bom.gov.au/fwo/IDS60801/IDS60801.95658.json